sensor_id;sensor_type;location;lat;lon;timestamp;temperature;humidity
14555;DHT22;7364;50.870;4.722;2022-09-09T00:02:27;16.40;99.90
14555;DHT22;7364;50.870;4.722;2022-09-09T00:04:59;16.50;99.90
14555;DHT22;7364;50.870;4.722;2022-09-09T00:07:36;16.50;99.90
14555;DHT22;7364;50.870;4.722;2022-09-09T00:10:16;16.70;99.90
14555;DHT22;7364;50.870;4.722;2022-09-09T00:12:52;16.70;99.90
14555;DHT22;7364;50.870;4.722;2022-09-09T00:15:25;16.70;99.90
14555;DHT22;7364;50.870;4.722;2022-09-09T00:17:58;16.70;99.90
14555;DHT22;7364;50.870;4.722;2022-09-09T00:20:32;16.70;99.90
14555;DHT22;7364;50.870;4.722;2022-09-09T00:23:05;16.90;99.90
14555;DHT22;7364;50.870;4.722;2022-09-09T00:25:42;16.80;99.90
14555;DHT22;7364;50.870;4.722;2022-09-09T00:28:18;16.90;99.90
14555;DHT22;7364;50.870;4.722;2022-09-09T00:30:46;17.00;99.90
14555;DHT22;7364;50.870;4.722;2022-09-09T00:33:17;17.10;99.90
14555;DHT22;7364;50.870;4.722;2022-09-09T00:35:49;17.00;99.90
14555;DHT22;7364;50.870;4.722;2022-09-09T00:38:22;17.00;99.90
14555;DHT22;7364;50.870;4.722;2022-09-09T00:40:55;17.00;99.90
14555;DHT22;7364;50.870;4.722;2022-09-09T00:43:29;16.80;99.90
14555;DHT22;7364;50.870;4.722;2022-09-09T00:46:16;16.70;99.90
14555;DHT22;7364;50.870;4.722;2022-09-09T00:48:54;16.50;99.90
14555;DHT22;7364;50.870;4.722;2022-09-09T00:51:30;16.30;99.90
14555;DHT22;7364;50.870;4.722;2022-09-09T00:54:16;16.30;99.90
14555;DHT22;7364;50.870;4.722;2022-09-09T00:56:53;16.30;99.90
14555;DHT22;7364;50.870;4.722;2022-09-09T00:59:28;16.30;99.90
14555;DHT22;7364;50.870;4.722;2022-09-09T01:01:59;16.30;99.90
14555;DHT22;7364;50.870;4.722;2022-09-09T01:04:34;16.30;99.90
14555;DHT22;7364;50.870;4.722;2022-09-09T01:07:13;16.20;99.90
14555;DHT22;7364;50.870;4.722;2022-09-09T01:09:50;16.10;99.90
14555;DHT22;7364;50.870;4.722;2022-09-09T01:12:26;16.10;99.90
14555;DHT22;7364;50.870;4.722;2022-09-09T01:15:01;16.00;99.90
14555;DHT22;7364;50.870;4.722;2022-09-09T01:17:33;16.00;99.90
14555;DHT22;7364;50.870;4.722;2022-09-09T01:20:10;16.20;99.90
14555;DHT22;7364;50.870;4.722;2022-09-09T01:22:44;16.30;99.90
14555;DHT22;7364;50.870;4.722;2022-09-09T01:25:28;16.30;99.90
14555;DHT22;7364;50.870;4.722;2022-09-09T01:27:58;16.30;99.90
14555;DHT22;7364;50.870;4.722;2022-09-09T01:30:26;16.20;99.90
14555;DHT22;7364;50.870;4.722;2022-09-09T01:32:56;16.30;99.90
14555;DHT22;7364;50.870;4.722;2022-09-09T01:35:37;16.20;99.90
14555;DHT22;7364;50.870;4.722;2022-09-09T01:38:07;16.20;99.90
14555;DHT22;7364;50.870;4.722;2022-09-09T01:40:34;16.20;99.90
14555;DHT22;7364;50.870;4.722;2022-09-09T01:43:04;16.30;99.90
14555;DHT22;7364;50.870;4.722;2022-09-09T01:45:33;16.10;99.90
14555;DHT22;7364;50.870;4.722;2022-09-09T01:48:01;16.00;99.90
14555;DHT22;7364;50.870;4.722;2022-09-09T01:50:29;16.00;99.90
14555;DHT22;7364;50.870;4.722;2022-09-09T01:52:58;16.00;99.90
14555;DHT22;7364;50.870;4.722;2022-09-09T01:55:33;16.00;99.90
14555;DHT22;7364;50.870;4.722;2022-09-09T01:58:19;15.90;99.90
14555;DHT22;7364;50.870;4.722;2022-09-09T02:00:56;15.90;99.90
14555;DHT22;7364;50.870;4.722;2022-09-09T02:03:28;15.90;99.90
14555;DHT22;7364;50.870;4.722;2022-09-09T02:06:02;15.90;99.90
14555;DHT22;7364;50.870;4.722;2022-09-09T02:08:38;15.90;99.90
14555;DHT22;7364;50.870;4.722;2022-09-09T02:11:12;15.90;99.90
14555;DHT22;7364;50.870;4.722;2022-09-09T02:13:43;15.80;99.90
14555;DHT22;7364;50.870;4.722;2022-09-09T02:16:15;15.90;99.90
14555;DHT22;7364;50.870;4.722;2022-09-09T02:18:48;15.90;99.90
14555;DHT22;7364;50.870;4.722;2022-09-09T02:21:18;15.90;99.90
14555;DHT22;7364;50.870;4.722;2022-09-09T02:26:22;15.80;99.90
14555;DHT22;7364;50.870;4.722;2022-09-09T02:28:55;15.80;99.90
14555;DHT22;7364;50.870;4.722;2022-09-09T02:31:25;15.80;99.90
14555;DHT22;7364;50.870;4.722;2022-09-09T02:33:56;15.70;99.90
14555;DHT22;7364;50.870;4.722;2022-09-09T02:36:27;15.70;99.90
14555;DHT22;7364;50.870;4.722;2022-09-09T02:38:56;15.80;99.90
14555;DHT22;7364;50.870;4.722;2022-09-09T02:41:27;15.70;99.90
14555;DHT22;7364;50.870;4.722;2022-09-09T02:43:57;15.70;99.90
14555;DHT22;7364;50.870;4.722;2022-09-09T02:46:36;15.70;99.90
14555;DHT22;7364;50.870;4.722;2022-09-09T02:49:10;15.70;99.90
14555;DHT22;7364;50.870;4.722;2022-09-09T02:51:44;15.70;99.90
14555;DHT22;7364;50.870;4.722;2022-09-09T02:54:20;15.70;99.90
14555;DHT22;7364;50.870;4.722;2022-09-09T02:56:51;15.70;99.90
14555;DHT22;7364;50.870;4.722;2022-09-09T02:59:21;15.70;99.90
14555;DHT22;7364;50.870;4.722;2022-09-09T03:01:49;15.70;99.90
14555;DHT22;7364;50.870;4.722;2022-09-09T03:04:18;15.70;99.90
14555;DHT22;7364;50.870;4.722;2022-09-09T03:06:50;15.70;99.90
14555;DHT22;7364;50.870;4.722;2022-09-09T03:09:17;15.70;99.90
14555;DHT22;7364;50.870;4.722;2022-09-09T03:11:44;15.70;99.90
14555;DHT22;7364;50.870;4.722;2022-09-09T03:14:11;15.60;99.90
14555;DHT22;7364;50.870;4.722;2022-09-09T03:16:40;15.60;99.90
14555;DHT22;7364;50.870;4.722;2022-09-09T03:19:08;15.60;99.90
14555;DHT22;7364;50.870;4.722;2022-09-09T03:21:35;15.70;99.90
14555;DHT22;7364;50.870;4.722;2022-09-09T03:24:02;15.70;99.90
14555;DHT22;7364;50.870;4.722;2022-09-09T03:26:30;15.70;99.90
14555;DHT22;7364;50.870;4.722;2022-09-09T03:28:57;15.60;99.90
14555;DHT22;7364;50.870;4.722;2022-09-09T03:31:26;15.70;99.90
14555;DHT22;7364;50.870;4.722;2022-09-09T03:33:57;15.60;99.90
14555;DHT22;7364;50.870;4.722;2022-09-09T03:36:25;15.60;99.90
14555;DHT22;7364;50.870;4.722;2022-09-09T03:38:54;15.60;99.90
14555;DHT22;7364;50.870;4.722;2022-09-09T03:41:22;15.70;99.90
14555;DHT22;7364;50.870;4.722;2022-09-09T03:43:50;15.70;99.90
14555;DHT22;7364;50.870;4.722;2022-09-09T03:46:17;15.60;99.90
14555;DHT22;7364;50.870;4.722;2022-09-09T03:48:46;15.60;99.90
14555;DHT22;7364;50.870;4.722;2022-09-09T03:51:15;15.60;99.90
14555;DHT22;7364;50.870;4.722;2022-09-09T03:53:42;15.60;99.90
14555;DHT22;7364;50.870;4.722;2022-09-09T03:56:10;15.60;99.90
14555;DHT22;7364;50.870;4.722;2022-09-09T03:58:37;15.60;99.90
14555;DHT22;7364;50.870;4.722;2022-09-09T04:01:07;15.50;99.90
14555;DHT22;7364;50.870;4.722;2022-09-09T04:03:35;15.50;99.90
14555;DHT22;7364;50.870;4.722;2022-09-09T04:06:03;15.50;99.90
14555;DHT22;7364;50.870;4.722;2022-09-09T04:08:33;15.50;99.90
14555;DHT22;7364;50.870;4.722;2022-09-09T04:11:02;15.50;99.90
14555;DHT22;7364;50.870;4.722;2022-09-09T04:13:32;15.50;99.90
14555;DHT22;7364;50.870;4.722;2022-09-09T04:16:02;15.50;99.90
14555;DHT22;7364;50.870;4.722;2022-09-09T04:18:30;15.50;99.90
14555;DHT22;7364;50.870;4.722;2022-09-09T04:20:57;15.50;99.90
14555;DHT22;7364;50.870;4.722;2022-09-09T04:23:28;15.50;99.90
14555;DHT22;7364;50.870;4.722;2022-09-09T04:25:58;15.50;99.90
14555;DHT22;7364;50.870;4.722;2022-09-09T04:28:28;15.50;99.90
14555;DHT22;7364;50.870;4.722;2022-09-09T04:30:56;15.50;99.90
14555;DHT22;7364;50.870;4.722;2022-09-09T04:33:24;15.60;99.90
14555;DHT22;7364;50.870;4.722;2022-09-09T04:35:53;15.60;99.90
14555;DHT22;7364;50.870;4.722;2022-09-09T04:38:20;15.60;99.90
14555;DHT22;7364;50.870;4.722;2022-09-09T04:40:50;15.70;99.90
14555;DHT22;7364;50.870;4.722;2022-09-09T04:43:21;15.70;99.90
14555;DHT22;7364;50.870;4.722;2022-09-09T04:45:49;15.70;99.90
14555;DHT22;7364;50.870;4.722;2022-09-09T04:48:17;15.60;99.90
14555;DHT22;7364;50.870;4.722;2022-09-09T04:50:47;15.50;99.90
14555;DHT22;7364;50.870;4.722;2022-09-09T04:53:23;15.50;99.90
14555;DHT22;7364;50.870;4.722;2022-09-09T04:55:51;15.50;99.90
14555;DHT22;7364;50.870;4.722;2022-09-09T04:58:18;15.50;99.90
14555;DHT22;7364;50.870;4.722;2022-09-09T05:00:49;15.50;99.90
14555;DHT22;7364;50.870;4.722;2022-09-09T05:03:16;15.50;99.90
14555;DHT22;7364;50.870;4.722;2022-09-09T05:05:43;15.40;99.90
14555;DHT22;7364;50.870;4.722;2022-09-09T05:08:10;15.40;99.90
14555;DHT22;7364;50.870;4.722;2022-09-09T05:10:38;15.40;99.90
14555;DHT22;7364;50.870;4.722;2022-09-09T05:13:07;15.40;99.90
14555;DHT22;7364;50.870;4.722;2022-09-09T05:15:34;15.40;99.90
14555;DHT22;7364;50.870;4.722;2022-09-09T05:18:03;15.40;99.90
14555;DHT22;7364;50.870;4.722;2022-09-09T05:20:30;15.40;99.90
14555;DHT22;7364;50.870;4.722;2022-09-09T05:22:57;15.40;99.90
14555;DHT22;7364;50.870;4.722;2022-09-09T05:25:24;15.40;99.90
14555;DHT22;7364;50.870;4.722;2022-09-09T05:27:52;15.50;99.90
14555;DHT22;7364;50.870;4.722;2022-09-09T05:30:20;15.50;99.90
14555;DHT22;7364;50.870;4.722;2022-09-09T05:32:48;15.50;99.90
14555;DHT22;7364;50.870;4.722;2022-09-09T05:35:17;15.60;99.90
14555;DHT22;7364;50.870;4.722;2022-09-09T05:37:44;15.70;99.90
14555;DHT22;7364;50.870;4.722;2022-09-09T05:40:13;15.70;99.90
14555;DHT22;7364;50.870;4.722;2022-09-09T05:42:41;15.80;99.90
14555;DHT22;7364;50.870;4.722;2022-09-09T05:45:10;15.80;99.90
14555;DHT22;7364;50.870;4.722;2022-09-09T05:47:37;15.70;99.90
14555;DHT22;7364;50.870;4.722;2022-09-09T05:50:05;15.70;99.90
14555;DHT22;7364;50.870;4.722;2022-09-09T05:52:34;15.70;99.90
14555;DHT22;7364;50.870;4.722;2022-09-09T05:55:02;15.80;99.90
14555;DHT22;7364;50.870;4.722;2022-09-09T05:57:30;15.80;99.90
14555;DHT22;7364;50.870;4.722;2022-09-09T05:59:57;15.90;99.90
14555;DHT22;7364;50.870;4.722;2022-09-09T06:02:25;16.10;99.90
14555;DHT22;7364;50.870;4.722;2022-09-09T06:04:53;16.10;99.90
14555;DHT22;7364;50.870;4.722;2022-09-09T06:07:21;16.10;99.90
14555;DHT22;7364;50.870;4.722;2022-09-09T06:09:50;16.10;99.90
14555;DHT22;7364;50.870;4.722;2022-09-09T06:12:17;16.10;99.90
14555;DHT22;7364;50.870;4.722;2022-09-09T06:14:44;16.20;99.90
14555;DHT22;7364;50.870;4.722;2022-09-09T06:17:11;16.20;99.90
14555;DHT22;7364;50.870;4.722;2022-09-09T06:19:38;16.20;99.90
14555;DHT22;7364;50.870;4.722;2022-09-09T06:22:12;16.10;99.90
14555;DHT22;7364;50.870;4.722;2022-09-09T06:24:39;16.20;99.90
14555;DHT22;7364;50.870;4.722;2022-09-09T06:27:09;16.20;99.90
14555;DHT22;7364;50.870;4.722;2022-09-09T06:29:37;16.20;99.90
14555;DHT22;7364;50.870;4.722;2022-09-09T06:32:05;16.20;99.90
14555;DHT22;7364;50.870;4.722;2022-09-09T06:34:34;16.30;99.90
14555;DHT22;7364;50.870;4.722;2022-09-09T06:37:02;16.30;99.90
14555;DHT22;7364;50.870;4.722;2022-09-09T06:39:31;16.40;99.90
14555;DHT22;7364;50.870;4.722;2022-09-09T06:41:59;16.50;99.90
14555;DHT22;7364;50.870;4.722;2022-09-09T06:44:27;16.50;99.90
14555;DHT22;7364;50.870;4.722;2022-09-09T06:46:56;16.40;99.90
14555;DHT22;7364;50.870;4.722;2022-09-09T06:49:23;16.50;99.90
14555;DHT22;7364;50.870;4.722;2022-09-09T06:51:50;16.60;99.90
14555;DHT22;7364;50.870;4.722;2022-09-09T06:54:17;16.90;99.90
14555;DHT22;7364;50.870;4.722;2022-09-09T06:56:45;16.90;99.90
14555;DHT22;7364;50.870;4.722;2022-09-09T06:59:12;16.90;99.90
14555;DHT22;7364;50.870;4.722;2022-09-09T07:01:42;16.90;99.90
14555;DHT22;7364;50.870;4.722;2022-09-09T07:04:10;17.00;99.90
14555;DHT22;7364;50.870;4.722;2022-09-09T07:06:40;17.00;99.90
14555;DHT22;7364;50.870;4.722;2022-09-09T07:09:11;16.90;99.90
14555;DHT22;7364;50.870;4.722;2022-09-09T07:11:39;16.90;99.90
14555;DHT22;7364;50.870;4.722;2022-09-09T07:14:08;16.90;99.90
14555;DHT22;7364;50.870;4.722;2022-09-09T07:16:38;16.80;99.90
14555;DHT22;7364;50.870;4.722;2022-09-09T07:19:07;16.80;99.90
14555;DHT22;7364;50.870;4.722;2022-09-09T07:21:34;16.80;99.90
14555;DHT22;7364;50.870;4.722;2022-09-09T07:24:02;16.90;99.90
14555;DHT22;7364;50.870;4.722;2022-09-09T07:26:38;16.90;99.90
14555;DHT22;7364;50.870;4.722;2022-09-09T07:29:06;17.00;99.90
14555;DHT22;7364;50.870;4.722;2022-09-09T07:31:34;17.00;99.90
14555;DHT22;7364;50.870;4.722;2022-09-09T07:34:03;16.90;99.90
14555;DHT22;7364;50.870;4.722;2022-09-09T07:36:34;17.00;99.90
14555;DHT22;7364;50.870;4.722;2022-09-09T07:39:04;17.00;99.90
14555;DHT22;7364;50.870;4.722;2022-09-09T07:41:33;17.00;99.90
14555;DHT22;7364;50.870;4.722;2022-09-09T07:44:04;17.10;99.90
14555;DHT22;7364;50.870;4.722;2022-09-09T07:46:32;17.20;99.90
14555;DHT22;7364;50.870;4.722;2022-09-09T07:49:03;17.20;99.90
14555;DHT22;7364;50.870;4.722;2022-09-09T07:51:33;17.20;99.90
14555;DHT22;7364;50.870;4.722;2022-09-09T07:54:05;17.10;99.90
14555;DHT22;7364;50.870;4.722;2022-09-09T07:56:35;17.20;99.90
14555;DHT22;7364;50.870;4.722;2022-09-09T07:59:03;17.20;99.90
14555;DHT22;7364;50.870;4.722;2022-09-09T08:01:35;17.30;99.90
14555;DHT22;7364;50.870;4.722;2022-09-09T08:04:06;17.40;99.90
14555;DHT22;7364;50.870;4.722;2022-09-09T08:06:43;17.60;99.90
14555;DHT22;7364;50.870;4.722;2022-09-09T08:09:12;17.70;99.90
14555;DHT22;7364;50.870;4.722;2022-09-09T08:11:43;17.70;99.90
14555;DHT22;7364;50.870;4.722;2022-09-09T08:14:12;17.90;99.90
14555;DHT22;7364;50.870;4.722;2022-09-09T08:16:43;18.10;99.90
14555;DHT22;7364;50.870;4.722;2022-09-09T08:19:11;18.20;99.90
14555;DHT22;7364;50.870;4.722;2022-09-09T08:21:43;18.10;99.90
14555;DHT22;7364;50.870;4.722;2022-09-09T08:24:12;18.10;99.90
14555;DHT22;7364;50.870;4.722;2022-09-09T08:26:41;18.30;99.90
14555;DHT22;7364;50.870;4.722;2022-09-09T08:29:12;18.40;99.90
14555;DHT22;7364;50.870;4.722;2022-09-09T08:31:42;18.30;99.90
14555;DHT22;7364;50.870;4.722;2022-09-09T08:34:10;18.20;99.90
14555;DHT22;7364;50.870;4.722;2022-09-09T08:36:39;18.20;99.90
14555;DHT22;7364;50.870;4.722;2022-09-09T08:39:10;18.20;99.90
14555;DHT22;7364;50.870;4.722;2022-09-09T08:41:49;18.40;99.90
14555;DHT22;7364;50.870;4.722;2022-09-09T08:44:26;18.60;99.90
14555;DHT22;7364;50.870;4.722;2022-09-09T08:47:01;18.60;99.90
14555;DHT22;7364;50.870;4.722;2022-09-09T08:49:43;18.50;99.90
14555;DHT22;7364;50.870;4.722;2022-09-09T08:52:18;18.40;99.90
14555;DHT22;7364;50.870;4.722;2022-09-09T08:54:48;18.40;99.90
14555;DHT22;7364;50.870;4.722;2022-09-09T08:57:20;18.40;99.90
14555;DHT22;7364;50.870;4.722;2022-09-09T08:59:50;18.30;99.90
14555;DHT22;7364;50.870;4.722;2022-09-09T09:02:22;18.20;99.90
14555;DHT22;7364;50.870;4.722;2022-09-09T09:05:06;18.00;99.90
14555;DHT22;7364;50.870;4.722;2022-09-09T09:07:47;17.90;99.90
14555;DHT22;7364;50.870;4.722;2022-09-09T09:10:29;17.90;99.90
14555;DHT22;7364;50.870;4.722;2022-09-09T09:13:00;17.80;99.90
14555;DHT22;7364;50.870;4.722;2022-09-09T09:15:31;17.70;99.90
14555;DHT22;7364;50.870;4.722;2022-09-09T09:18:03;17.60;99.90
14555;DHT22;7364;50.870;4.722;2022-09-09T09:20:38;17.60;99.90
14555;DHT22;7364;50.870;4.722;2022-09-09T09:23:17;17.40;99.90
14555;DHT22;7364;50.870;4.722;2022-09-09T09:25:52;17.30;99.90
14555;DHT22;7364;50.870;4.722;2022-09-09T09:28:23;17.40;99.90
14555;DHT22;7364;50.870;4.722;2022-09-09T09:30:54;17.50;99.90
14555;DHT22;7364;50.870;4.722;2022-09-09T09:33:26;17.40;99.90
14555;DHT22;7364;50.870;4.722;2022-09-09T09:35:59;17.30;99.90
14555;DHT22;7364;50.870;4.722;2022-09-09T09:38:29;17.30;99.90
14555;DHT22;7364;50.870;4.722;2022-09-09T09:40:59;17.30;99.90
14555;DHT22;7364;50.870;4.722;2022-09-09T09:43:28;17.30;99.90
14555;DHT22;7364;50.870;4.722;2022-09-09T09:45:56;17.30;99.90
14555;DHT22;7364;50.870;4.722;2022-09-09T09:48:25;17.20;99.90
14555;DHT22;7364;50.870;4.722;2022-09-09T09:50:54;17.20;99.90
14555;DHT22;7364;50.870;4.722;2022-09-09T09:53:27;17.20;99.90
14555;DHT22;7364;50.870;4.722;2022-09-09T09:55:59;17.30;99.90
14555;DHT22;7364;50.870;4.722;2022-09-09T09:58:29;17.40;99.90
14555;DHT22;7364;50.870;4.722;2022-09-09T10:00:58;17.50;99.90
14555;DHT22;7364;50.870;4.722;2022-09-09T10:03:29;17.50;99.90
14555;DHT22;7364;50.870;4.722;2022-09-09T10:05:57;17.50;99.90
14555;DHT22;7364;50.870;4.722;2022-09-09T10:08:25;17.50;99.90
14555;DHT22;7364;50.870;4.722;2022-09-09T10:11:04;17.50;99.90
14555;DHT22;7364;50.870;4.722;2022-09-09T10:13:37;17.50;99.90
14555;DHT22;7364;50.870;4.722;2022-09-09T10:16:17;17.50;99.90
14555;DHT22;7364;50.870;4.722;2022-09-09T10:18:57;17.40;99.90
14555;DHT22;7364;50.870;4.722;2022-09-09T10:24:40;17.40;99.90
14555;DHT22;7364;50.870;4.722;2022-09-09T10:27:19;17.40;99.90
14555;DHT22;7364;50.870;4.722;2022-09-09T10:30:03;17.50;99.90
14555;DHT22;7364;50.870;4.722;2022-09-09T10:32:41;17.60;99.90
14555;DHT22;7364;50.870;4.722;2022-09-09T10:35:17;17.60;99.90
14555;DHT22;7364;50.870;4.722;2022-09-09T10:38:19;17.70;99.90
14555;DHT22;7364;50.870;4.722;2022-09-09T10:41:03;17.60;99.90
14555;DHT22;7364;50.870;4.722;2022-09-09T10:46:42;17.80;99.90
14555;DHT22;7364;50.870;4.722;2022-09-09T10:49:22;17.90;99.90
14555;DHT22;7364;50.870;4.722;2022-09-09T10:52:01;18.00;99.90
14555;DHT22;7364;50.870;4.722;2022-09-09T10:54:49;17.80;99.90
14555;DHT22;7364;50.870;4.722;2022-09-09T10:57:26;17.80;99.90
14555;DHT22;7364;50.870;4.722;2022-09-09T11:00:00;17.80;99.90
14555;DHT22;7364;50.870;4.722;2022-09-09T11:02:34;18.00;99.90
14555;DHT22;7364;50.870;4.722;2022-09-09T11:05:04;18.20;99.90
14555;DHT22;7364;50.870;4.722;2022-09-09T11:07:37;18.30;99.90
14555;DHT22;7364;50.870;4.722;2022-09-09T11:10:17;18.20;99.90
14555;DHT22;7364;50.870;4.722;2022-09-09T11:12:48;18.30;99.90
14555;DHT22;7364;50.870;4.722;2022-09-09T11:15:20;18.60;99.90
14555;DHT22;7364;50.870;4.722;2022-09-09T11:17:55;18.70;99.90
14555;DHT22;7364;50.870;4.722;2022-09-09T11:20:28;18.90;99.90
14555;DHT22;7364;50.870;4.722;2022-09-09T11:23:00;19.00;99.90
14555;DHT22;7364;50.870;4.722;2022-09-09T11:25:34;18.90;99.90
14555;DHT22;7364;50.870;4.722;2022-09-09T11:28:21;19.20;99.90
14555;DHT22;7364;50.870;4.722;2022-09-09T11:31:07;19.70;99.90
14555;DHT22;7364;50.870;4.722;2022-09-09T11:33:56;20.10;99.90
14555;DHT22;7364;50.870;4.722;2022-09-09T11:39:42;20.20;99.90
14555;DHT22;7364;50.870;4.722;2022-09-09T11:42:18;20.60;99.90
14555;DHT22;7364;50.870;4.722;2022-09-09T11:44:49;21.10;99.90
14555;DHT22;7364;50.870;4.722;2022-09-09T11:47:24;21.70;99.90
14555;DHT22;7364;50.870;4.722;2022-09-09T11:50:08;21.90;99.90
14555;DHT22;7364;50.870;4.722;2022-09-09T11:52:37;22.20;99.90
14555;DHT22;7364;50.870;4.722;2022-09-09T11:55:11;22.20;99.90
14555;DHT22;7364;50.870;4.722;2022-09-09T11:57:41;22.20;99.90
14555;DHT22;7364;50.870;4.722;2022-09-09T12:00:33;22.30;99.90
14555;DHT22;7364;50.870;4.722;2022-09-09T12:03:01;22.10;99.90
14555;DHT22;7364;50.870;4.722;2022-09-09T12:05:43;21.90;99.90
14555;DHT22;7364;50.870;4.722;2022-09-09T12:08:26;21.60;99.90
14555;DHT22;7364;50.870;4.722;2022-09-09T12:10:56;21.70;99.90
14555;DHT22;7364;50.870;4.722;2022-09-09T12:13:27;22.20;99.90
14555;DHT22;7364;50.870;4.722;2022-09-09T12:15:55;22.50;99.90
14555;DHT22;7364;50.870;4.722;2022-09-09T12:18:24;22.50;99.90
14555;DHT22;7364;50.870;4.722;2022-09-09T12:21:00;22.90;99.90
14555;DHT22;7364;50.870;4.722;2022-09-09T12:23:38;22.80;99.90
14555;DHT22;7364;50.870;4.722;2022-09-09T12:26:25;22.20;99.90
14555;DHT22;7364;50.870;4.722;2022-09-09T12:29:01;21.60;99.90
14555;DHT22;7364;50.870;4.722;2022-09-09T12:31:46;21.80;99.90
14555;DHT22;7364;50.870;4.722;2022-09-09T12:34:18;21.60;99.90
14555;DHT22;7364;50.870;4.722;2022-09-09T12:36:56;21.90;99.90
14555;DHT22;7364;50.870;4.722;2022-09-09T12:39:31;22.00;99.90
14555;DHT22;7364;50.870;4.722;2022-09-09T12:42:00;21.90;99.90
14555;DHT22;7364;50.870;4.722;2022-09-09T12:44:35;21.50;99.90
14555;DHT22;7364;50.870;4.722;2022-09-09T12:47:03;21.80;99.90
14555;DHT22;7364;50.870;4.722;2022-09-09T12:49:34;22.20;99.90
14555;DHT22;7364;50.870;4.722;2022-09-09T12:52:08;22.40;99.90
14555;DHT22;7364;50.870;4.722;2022-09-09T12:54:47;22.30;99.90
14555;DHT22;7364;50.870;4.722;2022-09-09T12:57:21;22.50;99.90
14555;DHT22;7364;50.870;4.722;2022-09-09T12:59:51;22.50;99.90
14555;DHT22;7364;50.870;4.722;2022-09-09T13:02:21;22.30;99.90
14555;DHT22;7364;50.870;4.722;2022-09-09T13:04:49;22.20;99.90
14555;DHT22;7364;50.870;4.722;2022-09-09T13:07:20;22.40;99.90
14555;DHT22;7364;50.870;4.722;2022-09-09T13:09:49;23.30;99.90
14555;DHT22;7364;50.870;4.722;2022-09-09T13:12:20;23.70;99.90
14555;DHT22;7364;50.870;4.722;2022-09-09T13:14:50;24.00;99.90
14555;DHT22;7364;50.870;4.722;2022-09-09T13:17:22;24.10;99.90
14555;DHT22;7364;50.870;4.722;2022-09-09T13:19:50;24.10;99.90
14555;DHT22;7364;50.870;4.722;2022-09-09T13:22:27;23.50;99.90
14555;DHT22;7364;50.870;4.722;2022-09-09T13:25:00;23.40;99.90
14555;DHT22;7364;50.870;4.722;2022-09-09T13:27:31;23.50;99.90
14555;DHT22;7364;50.870;4.722;2022-09-09T13:30:00;23.40;99.90
14555;DHT22;7364;50.870;4.722;2022-09-09T13:32:28;23.50;99.90
14555;DHT22;7364;50.870;4.722;2022-09-09T13:34:58;23.20;99.90
14555;DHT22;7364;50.870;4.722;2022-09-09T13:37:32;24.00;99.90
14555;DHT22;7364;50.870;4.722;2022-09-09T13:40:01;24.20;99.90
14555;DHT22;7364;50.870;4.722;2022-09-09T13:42:33;24.30;99.90
14555;DHT22;7364;50.870;4.722;2022-09-09T13:45:02;23.70;99.90
14555;DHT22;7364;50.870;4.722;2022-09-09T13:47:32;23.90;99.90
14555;DHT22;7364;50.870;4.722;2022-09-09T13:50:17;25.20;99.90
14555;DHT22;7364;50.870;4.722;2022-09-09T13:52:46;25.50;99.00
14555;DHT22;7364;50.870;4.722;2022-09-09T13:55:15;25.70;98.20
14555;DHT22;7364;50.870;4.722;2022-09-09T13:57:52;26.40;96.20
14555;DHT22;7364;50.870;4.722;2022-09-09T14:00:22;26.70;95.00
14555;DHT22;7364;50.870;4.722;2022-09-09T14:02:55;25.50;96.40
14555;DHT22;7364;50.870;4.722;2022-09-09T14:05:22;26.00;96.10
14555;DHT22;7364;50.870;4.722;2022-09-09T14:07:52;25.80;96.00
14555;DHT22;7364;50.870;4.722;2022-09-09T14:10:20;25.00;96.50
14555;DHT22;7364;50.870;4.722;2022-09-09T14:12:47;24.70;97.10
14555;DHT22;7364;50.870;4.722;2022-09-09T14:15:15;24.50;97.40
14555;DHT22;7364;50.870;4.722;2022-09-09T14:17:43;24.20;97.90
14555;DHT22;7364;50.870;4.722;2022-09-09T14:20:11;24.10;98.60
14555;DHT22;7364;50.870;4.722;2022-09-09T14:22:41;24.90;97.10
14555;DHT22;7364;50.870;4.722;2022-09-09T14:25:13;25.40;96.30
14555;DHT22;7364;50.870;4.722;2022-09-09T14:27:42;25.20;95.40
14555;DHT22;7364;50.870;4.722;2022-09-09T14:30:12;24.70;96.60
14555;DHT22;7364;50.870;4.722;2022-09-09T14:32:39;24.30;97.20
14555;DHT22;7364;50.870;4.722;2022-09-09T14:35:08;23.80;98.40
14555;DHT22;7364;50.870;4.722;2022-09-09T14:37:36;24.40;98.00
14555;DHT22;7364;50.870;4.722;2022-09-09T14:40:06;24.60;97.80
14555;DHT22;7364;50.870;4.722;2022-09-09T14:42:35;24.70;97.80
14555;DHT22;7364;50.870;4.722;2022-09-09T14:45:03;24.60;96.80
14555;DHT22;7364;50.870;4.722;2022-09-09T14:47:30;24.90;96.80
14555;DHT22;7364;50.870;4.722;2022-09-09T14:49:59;24.00;97.50
14555;DHT22;7364;50.870;4.722;2022-09-09T14:52:27;23.40;98.40
14555;DHT22;7364;50.870;4.722;2022-09-09T14:54:57;23.30;99.30
14555;DHT22;7364;50.870;4.722;2022-09-09T14:57:24;22.40;99.90
14555;DHT22;7364;50.870;4.722;2022-09-09T14:59:52;22.30;99.90
14555;DHT22;7364;50.870;4.722;2022-09-09T15:02:19;22.50;99.90
14555;DHT22;7364;50.870;4.722;2022-09-09T15:04:47;23.00;99.90
14555;DHT22;7364;50.870;4.722;2022-09-09T15:07:15;23.70;99.90
14555;DHT22;7364;50.870;4.722;2022-09-09T15:09:44;24.40;99.70
14555;DHT22;7364;50.870;4.722;2022-09-09T15:12:13;24.50;97.30
14555;DHT22;7364;50.870;4.722;2022-09-09T15:14:41;24.80;97.70
14555;DHT22;7364;50.870;4.722;2022-09-09T15:17:09;25.80;97.10
14555;DHT22;7364;50.870;4.722;2022-09-09T15:19:37;27.10;94.10
14555;DHT22;7364;50.870;4.722;2022-09-09T15:22:16;27.40;91.60
14555;DHT22;7364;50.870;4.722;2022-09-09T15:24:48;27.60;91.40
14555;DHT22;7364;50.870;4.722;2022-09-09T15:27:16;28.30;90.20
14555;DHT22;7364;50.870;4.722;2022-09-09T15:29:43;28.00;87.50
14555;DHT22;7364;50.870;4.722;2022-09-09T15:32:12;26.20;90.10
14555;DHT22;7364;50.870;4.722;2022-09-09T15:34:39;25.90;91.60
14555;DHT22;7364;50.870;4.722;2022-09-09T15:37:10;25.60;91.90
14555;DHT22;7364;50.870;4.722;2022-09-09T15:39:41;25.00;92.70
14555;DHT22;7364;50.870;4.722;2022-09-09T15:42:08;24.50;93.50
14555;DHT22;7364;50.870;4.722;2022-09-09T15:44:40;24.20;94.60
14555;DHT22;7364;50.870;4.722;2022-09-09T15:47:10;24.40;94.40
14555;DHT22;7364;50.870;4.722;2022-09-09T15:49:39;24.70;94.40
14555;DHT22;7364;50.870;4.722;2022-09-09T15:52:11;24.70;94.40
14555;DHT22;7364;50.870;4.722;2022-09-09T15:54:46;25.10;94.20
14555;DHT22;7364;50.870;4.722;2022-09-09T15:57:13;24.60;94.30
14555;DHT22;7364;50.870;4.722;2022-09-09T15:59:41;23.90;95.30
14555;DHT22;7364;50.870;4.722;2022-09-09T16:02:09;23.70;96.50
14555;DHT22;7364;50.870;4.722;2022-09-09T16:04:36;23.80;96.80
14555;DHT22;7364;50.870;4.722;2022-09-09T16:07:05;23.80;96.60
14555;DHT22;7364;50.870;4.722;2022-09-09T16:09:34;23.70;97.20
14555;DHT22;7364;50.870;4.722;2022-09-09T16:12:04;23.90;96.80
14555;DHT22;7364;50.870;4.722;2022-09-09T16:14:37;24.00;96.50
14555;DHT22;7364;50.870;4.722;2022-09-09T16:17:05;24.10;96.50
14555;DHT22;7364;50.870;4.722;2022-09-09T16:19:34;24.00;96.50
14555;DHT22;7364;50.870;4.722;2022-09-09T16:22:02;23.60;97.00
14555;DHT22;7364;50.870;4.722;2022-09-09T16:24:31;23.20;97.00